• Join FlightAware (Why Join?)
  • Login
  • US Flag 
03:27AM EDT


 

Airport Tracker/Info


-or-


 

Live Flight TrackerFlight Track Log ✈ UPS1122 ✈ 08-Aug-2013 ✈ KBDL - KALB

Flight Track Log - Related Links

Times and Time Zones

All times are in EDT time to prevent confusion due to time zone crossing. See the UPS1122 flight status page for this flight to view local times or setup timezone preferences in your user account.

Time Position Orientation Groundspeed Altitude Reporting Facility
EDT Latitude Longitude Course Direction KTS MPH feet Rate Location/Type
06:47AM 41.9333 -72.6997 288° West 173 199 1,500  Level Boston Center
06:48AM 41.9558 -72.7919 288° West 250 288 5,300 3,060 Climbing Boston Center
06:49AM 42.0100 -72.8619 316° Northwest 267 307 9,100 2,100 Climbing Boston Center
06:50AM 42.0803 -72.9519 316° Northwest 300 345 10,000 480 Climbing Boston Center
06:51AM 42.1239 -72.9972 322° Northwest 322 371 10,000 -120 Level Boston Center
06:52AM 42.1675 -73.0592 314° West 332 382 9,900  Descending Boston Center
06:53AM 42.2378 -73.1467 317° Northwest 342 394 10,000  Climbing Boston Center
06:54AM 42.3039 -73.2344 316° Northwest 339 390 10,000  Level Boston Center
06:55AM 42.3761 -73.3142 321° Northwest 334 384 10,000 -60 Level Boston Center
06:56AM 42.4467 -73.3797 326° Northwest 275 316 9,900 -720 Descending Boston Center
06:57AM 42.5106 -73.4344 328° Northwest 261 300 8,600 -1,260 Descending Boston Center
06:58AM 42.5728 -73.4889 327° Northwest 266 306 7,300 -1,200 Descending Boston Center
06:59AM 42.6325 -73.5436 326° Northwest 259 298 6,200 -1,140 Descending Boston Center
07:00AM 42.6883 -73.5953 326° Northwest 245 282 5,100 -1,140 Descending Boston Center
07:01AM 42.7464 -73.6361 333° Northwest 246 283 4,000 -600 Descending Boston Center
07:02AM 42.8128 -73.6486 352° North 217 250 4,000 -180 Level Boston Center
07:03AM 42.8731 -73.6639 349° North 201 231 3,700 -480 Descending Boston Center
07:04AM 42.9186 -73.6989 331° Northwest 180 207 3,100 -600 Descending Boston Center
07:05AM 42.9283 -73.7586 283° West 145 167 2,500 -600 Descending Boston Center
07:06AM 42.9031 -73.7950 227° Southwest 149 171 2,000 -300 Descending Boston Center
07:07AM 42.8653 -73.8139 200° South 149 171 2,000 -240 Level Boston Center
07:08AM 42.8236 -73.8131 179° South 123 142 1,500 -480 Descending Boston Center
07:09AM 42.7922 -73.8094 175° South 104 120 1,000 -600 Descending Boston Center
07:10AM 42.7611 -73.8089 179° South 107 123 400 -600 Descending Boston Center